Time;durP1;ratioP1;P1;durP2;ratioP2;P2;SDS_P1;SDS_P2;PMS_P1;PMS_P2;Temp;Humidity;BMP_temperature;BMP_pressure;BME280_temperature;BME280_humidity;BME280_pressure;Samples;Min_cycle;Max_cycle;Signal;HPM_P1;HPM_P2
2021/12/18 00:01:17;;;;;;;5.10;3.90;;;;;;;0.12;87.44;99876.34;6212053;22;20451;-81
2021/12/18 00:03:45;;;;;;;5.57;4.53;;;;;;;0.22;87.93;99903.59;6210388;22;20023;-81
2021/12/18 00:06:39;;;;;;;4.57;4.18;;;;;;;0.22;88.83;99919.84;6224702;22;20019;-83
2021/12/18 00:09:08;;;;;;;5.65;5.15;;;;;;;0.03;89.53;99896.97;6201445;22;20034;-81
2021/12/18 00:11:35;;;;;;;4.25;3.92;;;;;;;-0.03;90.17;99897.88;6163908;22;20020;-82
2021/12/18 00:14:09;;;;;;;6.00;5.03;;;;;;;-0.03;90.22;99895.31;6189589;22;20463;-81
2021/12/18 00:16:43;;;;;;;6.00;5.53;;;;;;;-0.04;90.70;99903.91;6232763;22;20024;-81
2021/12/18 00:19:24;;;;;;;7.55;5.15;;;;;;;0.07;90.95;99914.88;6211725;22;20359;-82
2021/12/18 00:21:51;;;;;;;6.35;5.80;;;;;;;-0.09;90.89;99898.81;6264286;22;20015;-82
2021/12/18 00:24:17;;;;;;;7.40;5.90;;;;;;;-0.05;91.44;99905.59;6216193;22;20375;-82
2021/12/18 00:26:43;;;;;;;6.32;5.82;;;;;;;-0.10;90.99;99902.22;6166073;22;20019;-82
2021/12/18 00:29:09;;;;;;;7.03;6.18;;;;;;;0.00;91.02;99914.09;6220169;22;20019;-81
2021/12/18 00:31:43;;;;;;;8.35;6.80;;;;;;;-0.05;91.23;99905.59;6172849;22;20035;-83
2021/12/18 00:34:10;;;;;;;6.15;5.63;;;;;;;-0.10;91.40;99902.22;6216639;22;20352;-81
2021/12/18 00:36:40;;;;;;;6.53;5.97;;;;;;;0.02;91.19;99915.81;6185731;22;20030;-81
2021/12/18 00:39:13;;;;;;;6.93;6.32;;;;;;;0.10;91.28;99939.66;6186932;22;20083;-83
2021/12/18 00:41:59;;;;;;;7.38;6.65;;;;;;;0.04;91.37;99926.88;6238140;22;20034;-82
2021/12/18 00:44:28;;;;;;;6.85;5.35;;;;;;;0.09;91.31;99925.13;6201214;22;20106;-81
2021/12/18 00:46:56;;;;;;;7.93;7.13;;;;;;;-0.02;90.92;99905.56;6257213;22;20019;-82
2021/12/18 00:49:28;;;;;;;6.70;6.00;;;;;;;0.17;90.94;99928.44;6184924;22;20020;-82
2021/12/18 00:51:54;;;;;;;9.05;5.80;;;;;;;0.09;91.12;99922.56;6189409;22;20019;-80
2021/12/18 00:54:21;;;;;;;6.65;6.05;;;;;;;-0.09;91.15;99893.69;6189021;22;20047;-80
2021/12/18 00:56:52;;;;;;;7.72;5.93;;;;;;;-0.07;91.67;99898.81;6209906;22;20039;-81
2021/12/18 00:59:18;;;;;;;;;;;;;;;0.10;91.63;99930.22;6186233;22;20534;-81
2021/12/18 01:01:47;;;;;;;5.47;4.97;;;;;;;-0.03;90.91;99919.25;6214330;22;20430;-82
2021/12/18 01:04:21;;;;;;;5.70;4.97;;;;;;;0.00;90.70;99924.34;6199889;22;20025;-82
2021/12/18 01:07:01;;;;;;;7.95;5.18;;;;;;;0.00;90.38;99916.66;6247848;22;20111;-81
2021/12/18 01:09:59;;;;;;;7.88;4.68;;;;;;;0.12;90.19;99940.50;6251333;22;20066;-81
2021/12/18 01:12:43;;;;;;;6.57;5.35;;;;;;;0.05;89.92;99916.63;6232933;23;20024;-81
2021/12/18 01:15:27;;;;;;;6.07;5.47;;;;;;;-0.04;90.53;99917.59;6148034;23;20031;-81
2021/12/18 01:23:53;;;;;;;5.10;4.70;;;;;;;0.06;89.63;99935.44;6198772;23;20032;-81
2021/12/18 01:26:27;;;;;;;6.13;5.00;;;;;;;0.02;89.75;99926.06;6170101;23;20055;-82
2021/12/18 01:29:10;;;;;;;3.78;3.53;;;;;;;0.04;89.75;99929.44;6190443;23;20024;-81
2021/12/18 01:31:38;;;;;;;5.18;4.70;;;;;;;-0.05;89.67;99926.13;6175808;23;20077;-82
2021/12/18 01:34:04;;;;;;;5.80;4.45;;;;;;;-0.09;90.14;99913.34;6191695;23;20040;-80
2021/12/18 01:36:33;;;;;;;8.55;5.70;;;;;;;0.03;90.86;99933.75;6191055;23;20583;-82
2021/12/18 01:39:21;;;;;;;6.53;5.85;;;;;;;0.06;91.31;99938.00;6147259;23;20544;-81
2021/12/18 01:42:12;;;;;;;6.47;5.75;;;;;;;0.07;91.24;99937.09;6186982;23;20028;-82
2021/12/18 01:52:59;;;;;;;6.18;5.57;;;;;;;0.07;90.73;99921.72;6204555;23;20024;-80
2021/12/18 01:55:33;;;;;;;6.13;5.53;;;;;;;0.00;90.68;99919.22;6177736;23;20031;-80
2021/12/18 01:58:00;;;;;;;6.60;5.90;;;;;;;0.04;90.65;99919.19;6155108;23;20032;-81
2021/12/18 02:00:28;;;;;;;10.90;6.47;;;;;;;0.08;90.45;99923.41;6254939;23;20371;-80
2021/12/18 02:02:54;;;;;;;8.40;6.35;;;;;;;0.04;89.95;99925.16;6174039;23;20119;-81
2021/12/18 02:05:22;;;;;;;8.55;6.40;;;;;;;0.14;90.10;99933.63;6125447;23;20104;-81
2021/12/18 02:07:49;;;;;;;11.95;6.32;;;;;;;0.18;90.10;99937.84;6154302;23;20020;-79
2021/12/18 02:10:23;;;;;;;6.63;5.95;;;;;;;0.15;90.03;99932.75;6202447;23;20143;-80
2021/12/18 02:14:02;;;;;;;8.57;6.28;;;;;;;0.16;89.86;99937.88;6206474;23;20016;-81
2021/12/18 02:21:29;;;;;;;5.00;4.60;;;;;;;0.17;89.97;99951.53;6181324;23;20078;-81
2021/12/18 02:23:58;;;;;;;5.17;4.77;;;;;;;0.03;89.89;99922.63;6197988;23;20024;-81
2021/12/18 02:26:31;;;;;;;6.90;4.90;;;;;;;0.20;89.68;99951.50;6177755;23;20024;-78
2021/12/18 02:29:00;;;;;;;5.68;4.75;;;;;;;0.13;89.83;99939.63;6150980;23;20024;-82
2021/12/18 02:31:27;;;;;;;5.43;4.93;;;;;;;0.20;90.10;99954.06;6175831;23;20020;-82
2021/12/18 02:33:53;;;;;;;8.65;5.25;;;;;;;0.14;90.42;99941.31;6249516;23;20070;-81
2021/12/18 02:37:03;;;;;;;6.45;5.45;;;;;;;0.21;90.27;99950.66;6192944;23;20032;-81
2021/12/18 02:42:20;;;;;;;5.78;5.05;;;;;;;0.17;90.60;99951.53;6184577;23;20031;-81
2021/12/18 02:44:47;;;;;;;8.43;5.65;;;;;;;0.17;90.89;99948.97;6175338;23;20067;-81
2021/12/18 02:47:18;;;;;;;7.93;6.03;;;;;;;0.18;90.99;99959.22;6173597;23;20467;-80
2021/12/18 02:49:51;;;;;;;6.50;5.95;;;;;;;0.21;90.99;99953.22;6165781;23;20098;-80
2021/12/18 02:52:23;;;;;;;8.30;5.70;;;;;;;0.14;90.52;99947.28;6135027;23;20036;-80
2021/12/18 02:54:49;;;;;;;;;;;;;;;0.27;90.58;99964.25;6172306;23;20058;-80
2021/12/18 02:57:19;;;;;;;9.85;6.25;;;;;;;0.22;90.74;99960.06;6198969;23;20382;-80
2021/12/18 02:59:56;;;;;;;10.32;5.65;;;;;;;0.26;90.66;99959.97;6198129;23;20028;-80
2021/12/18 03:02:23;;;;;;;13.68;6.82;;;;;;;0.17;90.55;99941.28;6173642;23;20110;-81
2021/12/18 03:04:55;;;;;;;8.13;6.20;;;;;;;0.25;90.95;99954.88;6147692;23;20028;-81
2021/12/18 03:07:27;;;;;;;10.52;6.53;;;;;;;0.16;90.57;99944.72;6222012;23;20020;-80
2021/12/18 03:23:50;;;;;;;6.32;4.32;;;;;;;0.21;88.35;99953.22;6178144;23;20026;-79
2021/12/18 03:26:16;;;;;;;5.13;4.72;;;;;;;0.12;88.05;99949.03;6175141;23;20024;-82
2021/12/18 03:28:42;;;;;;;6.20;5.60;;;;;;;0.18;88.29;99951.53;6161635;23;20023;-80
2021/12/18 03:31:09;;;;;;;4.32;4.03;;;;;;;0.03;87.81;99930.34;6209477;23;20016;-77
2021/12/18 03:33:35;;;;;;;6.07;5.57;;;;;;;0.03;88.89;99943.16;6189531;23;20102;-77
2021/12/18 03:36:06;;;;;;;9.38;5.80;;;;;;;-0.13;92.23;99958.69;6141182;23;20085;-78
2021/12/18 03:38:35;;;;;;;5.78;4.13;;;;;;;-0.40;94.10;99955.56;6185879;22;20026;-77
2021/12/18 03:41:00;;;;;;;5.93;4.78;;;;;;;-0.41;93.99;99962.41;6219740;22;20083;-79
2021/12/18 03:43:27;;;;;;;4.10;3.75;;;;;;;-0.43;92.28;99953.03;6220030;22;20060;-78
2021/12/18 03:45:53;;;;;;;4.10;3.75;;;;;;;-0.27;90.95;99965.69;6244939;22;20408;-78
2021/12/18 03:48:20;;;;;;;3.30;3.00;;;;;;;-0.28;88.26;99961.44;6194928;22;20015;-77
2021/12/18 03:50:47;;;;;;;4.07;3.67;;;;;;;-0.19;87.94;99957.91;6174454;22;20092;-79
2021/12/18 03:53:13;;;;;;;3.03;2.80;;;;;;;-0.24;87.75;99954.56;6273864;22;20904;-79
2021/12/18 03:55:39;;;;;;;2.90;2.70;;;;;;;-0.18;87.98;99968.16;6172261;22;20019;-79
2021/12/18 03:58:05;;;;;;;3.83;3.53;;;;;;;-0.29;87.78;99946.03;6221003;22;20042;-79
2021/12/18 04:00:30;;;;;;;3.63;3.30;;;;;;;-0.31;88.46;99956.34;6247758;22;20020;-78
2021/12/18 04:02:58;;;;;;;3.05;2.85;;;;;;;-0.28;87.53;99940.91;6221056;22;20444;-78
2021/12/18 04:05:24;;;;;;;4.07;3.75;;;;;;;-0.26;87.21;99952.00;6171079;22;20019;-78
2021/12/18 04:07:51;;;;;;;4.20;2.90;;;;;;;-0.21;86.27;99960.50;6195292;22;20026;-78
2021/12/18 04:10:18;;;;;;;2.97;2.78;;;;;;;-0.20;86.17;99959.66;6245665;22;20043;-78
2021/12/18 04:12:45;;;;;;;3.83;2.67;;;;;;;-0.27;85.17;99950.31;6170805;22;20590;-77
2021/12/18 04:15:11;;;;;;;3.42;3.13;;;;;;;-0.25;84.60;99958.84;6245193;22;20027;-77
2021/12/18 04:17:37;;;;;;;2.65;2.45;;;;;;;-0.13;84.68;99974.09;6220717;22;20043;-79
2021/12/18 04:20:04;;;;;;;3.92;2.85;;;;;;;-0.24;84.60;99965.66;6222946;22;20015;-79
2021/12/18 04:22:30;;;;;;;3.83;2.50;;;;;;;-0.14;84.30;99977.53;6225680;22;20019;-81
2021/12/18 04:24:58;;;;;;;3.63;3.42;;;;;;;-0.16;83.49;99974.13;6224688;22;20031;-82
2021/12/18 04:27:26;;;;;;;2.50;2.30;;;;;;;-0.25;81.62;99963.09;6227491;22;20481;-81
2021/12/18 04:29:53;;;;;;;3.05;2.85;;;;;;;-0.14;81.22;99992.94;6228808;22;20030;-81
2021/12/18 04:32:25;;;;;;;3.13;2.50;;;;;;;-0.19;79.19;99978.44;6206516;22;20047;-82
2021/12/18 04:34:58;;;;;;;2.60;2.50;;;;;;;-0.36;79.71;99952.94;6232876;22;20031;-82
2021/12/18 04:37:24;;;;;;;1.98;1.88;;;;;;;-0.31;79.54;99964.03;6179980;22;20019;-81
2021/12/18 04:39:52;;;;;;;2.25;2.15;;;;;;;-0.17;79.37;99981.84;6157530;22;20066;-82
2021/12/18 04:42:23;;;;;;;1.90;1.80;;;;;;;-0.26;79.28;99969.94;6214133;22;20020;-82
2021/12/18 04:45:10;;;;;;;2.58;2.38;;;;;;;-0.20;80.44;99981.88;6231373;22;20034;-82
2021/12/18 04:48:18;;;;;;;2.45;2.20;;;;;;;-0.22;80.25;99979.31;6289474;22;20412;-81
2021/12/18 04:51:13;;;;;;;3.80;2.83;;;;;;;-0.30;80.53;99976.00;6237406;22;20044;-82
2021/12/18 04:53:46;;;;;;;6.20;3.30;;;;;;;-0.19;80.90;99994.69;6230246;22;20015;-83
2021/12/18 04:56:14;;;;;;;4.05;3.03;;;;;;;-0.25;80.67;99975.94;6178898;22;20314;-83
2021/12/18 04:58:43;;;;;;;2.70;2.50;;;;;;;-0.29;80.57;99972.53;6245787;23;20369;-81
2021/12/18 05:01:09;;;;;;;3.28;2.97;;;;;;;-0.24;81.19;99991.31;6200212;23;20024;-82
2021/12/18 05:03:39;;;;;;;3.88;3.58;;;;;;;-0.24;81.96;99999.00;6201561;22;20027;-82
2021/12/18 05:06:05;;;;;;;2.60;2.40;;;;;;;-0.38;82.40;99975.19;6227901;22;20020;-79
2021/12/18 05:08:33;;;;;;;3.28;3.08;;;;;;;-0.30;81.51;99991.38;6178727;22;20019;-80
2021/12/18 05:10:59;;;;;;;4.43;2.92;;;;;;;-0.42;81.82;99975.22;6159164;22;20600;-81
2021/12/18 05:13:25;;;;;;;3.88;3.50;;;;;;;-0.39;81.32;99964.97;6207932;22;20016;-82
2021/12/18 05:15:54;;;;;;;6.53;3.33;;;;;;;-0.35;81.40;99982.84;6208248;22;20020;-81
2021/12/18 05:18:21;;;;;;;2.90;2.58;;;;;;;-0.36;81.14;99985.47;6176671;22;20030;-82
2021/12/18 05:20:48;;;;;;;3.65;3.35;;;;;;;-0.39;81.25;99983.75;6203121;22;20463;-82
2021/12/18 05:23:19;;;;;;;2.97;2.80;;;;;;;-0.33;80.76;99991.41;6201904;22;20210;-81
2021/12/18 05:25:46;;;;;;;3.97;3.58;;;;;;;-0.45;81.17;99983.81;6250827;22;20030;-82
2021/12/18 05:28:14;;;;;;;3.42;3.13;;;;;;;-0.45;80.25;99978.66;6250601;22;20023;-81
2021/12/18 05:30:41;;;;;;;4.90;3.50;;;;;;;-0.35;80.08;99990.56;6201035;22;20026;-81
2021/12/18 05:33:11;;;;;;;3.78;2.60;;;;;;;-0.49;80.48;99978.72;6199629;22;20114;-82
2021/12/18 05:35:39;;;;;;;3.72;3.40;;;;;;;-0.45;80.84;99976.09;6174646;22;20050;-82
2021/12/18 05:38:14;;;;;;;4.60;4.20;;;;;;;-0.35;80.89;99993.13;6200154;22;20111;-82
2021/12/18 05:40:40;;;;;;;4.28;2.90;;;;;;;-0.46;80.99;99982.13;6151759;22;20028;-82
2021/12/18 05:43:09;;;;;;;4.50;3.85;;;;;;;-0.43;81.84;99994.06;6175466;22;20023;-82
2021/12/18 05:45:35;;;;;;;4.57;4.28;;;;;;;-0.55;81.92;99982.16;6173602;22;20019;-82
2021/12/18 05:48:04;;;;;;;3.80;3.50;;;;;;;-0.63;82.06;99973.72;6181845;22;20062;-79
2021/12/18 05:50:31;;;;;;;4.75;4.35;;;;;;;-0.67;81.83;99974.59;6205871;22;20168;-81
2021/12/18 05:53:01;;;;;;;4.43;3.70;;;;;;;-0.56;81.91;99994.13;6178207;22;20019;-82
2021/12/18 05:55:28;;;;;;;4.22;3.55;;;;;;;-0.64;81.46;99988.22;6184135;22;20027;-82
2021/12/18 05:57:58;;;;;;;6.10;4.85;;;;;;;-0.72;81.47;99978.91;6208365;22;20019;-82
2021/12/18 06:00:27;;;;;;;5.55;5.05;;;;;;;-0.72;81.44;99987.44;6211122;22;20058;-82
2021/12/18 06:03:06;;;;;;;6.72;3.97;;;;;;;-0.65;81.25;100003.59;6216140;22;20043;-83
2021/12/18 06:05:37;;;;;;;5.38;3.78;;;;;;;-0.73;80.58;99984.88;6209654;22;20034;-80
2021/12/18 06:08:09;;;;;;;14.27;5.03;;;;;;;-0.74;80.54;99978.06;6205604;22;20039;-83
2021/12/18 06:10:37;;;;;;;6.03;5.13;;;;;;;-0.65;80.34;99988.22;6161597;22;20447;-81
2021/12/18 06:13:06;;;;;;;6.32;4.85;;;;;;;-0.75;79.87;99973.78;6261762;22;20090;-81
2021/12/18 06:15:58;;;;;;;6.72;4.97;;;;;;;-0.70;79.97;99993.41;6238767;22;20019;-80
2021/12/18 06:18:27;;;;;;;6.70;4.72;;;;;;;-0.70;80.07;100000.25;6222735;22;20035;-80
2021/12/18 06:20:56;;;;;;;9.80;5.13;;;;;;;-0.73;80.71;100006.25;6165661;22;20031;-80
2021/12/18 06:24:01;;;;;;;;;;;;;;;-0.66;79.89;100001.94;6227178;22;20082;-80
2021/12/18 06:26:31;;;;;;;10.75;4.60;;;;;;;-0.75;80.33;99991.72;6248943;22;19915;-81
2021/12/18 06:29:03;;;;;;;7.90;4.20;;;;;;;-0.81;79.85;99982.38;6222357;22;20027;-79
2021/12/18 06:31:39;;;;;;;5.13;4.40;;;;;;;-0.83;80.14;99986.66;6172942;22;20027;-80
2021/12/18 06:34:13;;;;;;;5.65;4.53;;;;;;;-0.72;80.08;100010.50;6190990;22;20032;-81
2021/12/18 06:36:42;;;;;;;5.90;4.70;;;;;;;-0.73;79.95;100002.84;6224013;22;20070;-80
2021/12/18 06:39:24;;;;;;;7.82;6.38;;;;;;;-0.78;80.04;100007.97;6224665;22;20085;-79
2021/12/18 06:41:51;;;;;;;5.30;4.75;;;;;;;-0.87;79.77;99987.53;6196216;22;20023;-80
2021/12/18 06:44:17;;;;;;;8.05;5.82;;;;;;;-0.75;79.90;100007.09;6274401;22;20020;-81
2021/12/18 06:46:46;;;;;;;5.65;4.43;;;;;;;-0.85;80.23;99990.13;6201280;22;20019;-81
2021/12/18 06:49:15;;;;;;;7.93;4.63;;;;;;;-0.77;79.48;100002.00;6195921;22;20028;-81
2021/12/18 06:51:42;;;;;;;10.95;4.72;;;;;;;-0.81;79.59;100004.59;6220164;22;20070;-81
2021/12/18 06:54:08;;;;;;;8.10;5.47;;;;;;;-0.82;79.51;99997.78;6219332;22;20020;-81
2021/12/18 06:56:34;;;;;;;5.55;4.43;;;;;;;-0.82;79.47;100008.03;6219357;22;20026;-79
2021/12/18 06:59:10;;;;;;;8.57;5.38;;;;;;;-0.79;79.57;100005.44;6181059;22;20103;-81
2021/12/18 07:01:38;;;;;;;9.60;5.60;;;;;;;-0.82;79.82;99997.78;6159997;22;20023;-82
2021/12/18 07:04:31;;;;;;;6.07;4.68;;;;;;;-0.95;78.96;99983.34;6214133;22;20485;-80
2021/12/18 07:07:08;;;;;;;5.13;4.10;;;;;;;-0.84;78.75;99996.91;6171841;22;20019;-80
2021/12/18 07:09:37;;;;;;;5.00;4.50;;;;;;;-0.76;78.61;100005.41;6221368;22;20518;-80
2021/12/18 07:12:04;;;;;;;5.97;3.88;;;;;;;-0.90;78.00;99987.56;6198910;22;20019;-78
2021/12/18 07:14:33;;;;;;;5.75;4.75;;;;;;;-0.88;77.79;99987.56;6172926;22;20110;-77
2021/12/18 07:16:59;;;;;;;5.85;4.00;;;;;;;-0.86;77.42;100004.63;6164243;22;20467;-80
2021/12/18 07:19:29;;;;;;;5.47;3.63;;;;;;;-0.85;77.26;100006.31;6218019;22;20012;-79
2021/12/18 07:21:56;;;;;;;4.93;3.47;;;;;;;-0.89;77.20;100004.66;6195550;22;20023;-81
2021/12/18 07:24:22;;;;;;;5.65;3.88;;;;;;;-0.95;77.21;99998.72;6193904;22;20443;-80
2021/12/18 07:26:55;;;;;;;5.57;3.45;;;;;;;-0.94;75.92;100000.41;6201018;22;20020;-78
2021/12/18 07:29:23;;;;;;;2.67;2.47;;;;;;;-0.90;76.48;100002.09;6193593;22;20689;-79
2021/12/18 07:31:55;;;;;;;5.35;3.30;;;;;;;-1.03;76.19;100001.31;6222700;22;20098;-79
2021/12/18 07:34:21;;;;;;;3.58;2.78;;;;;;;-1.12;75.08;99979.19;6195234;22;20101;-77
2021/12/18 07:36:47;;;;;;;2.30;2.20;;;;;;;-1.12;75.09;99991.97;6193883;22;20620;-80
2021/12/18 07:39:15;;;;;;;2.20;2.00;;;;;;;-1.09;74.52;100009.03;6198101;22;20485;-78
2021/12/18 07:41:44;;;;;;;3.30;2.33;;;;;;;-1.11;74.19;100003.91;6171493;22;20024;-79
2021/12/18 07:44:11;;;;;;;3.50;1.85;;;;;;;-1.07;74.03;100010.72;6196710;22;20030;-79
2021/12/18 07:46:45;;;;;;;2.08;1.88;;;;;;;-1.09;73.75;100004.78;6197689;22;20540;-79
2021/12/18 07:49:12;;;;;;;2.13;2.03;;;;;;;-1.14;73.90;100001.38;6197609;22;20026;-79
2021/12/18 07:51:39;;;;;;;2.10;2.00;;;;;;;-1.03;73.86;100036.31;6176903;22;20012;-80
2021/12/18 07:54:05;;;;;;;3.15;2.95;;;;;;;-1.07;73.95;100020.09;6198470;22;20083;-80
2021/12/18 07:56:37;;;;;;;2.60;2.45;;;;;;;-0.98;73.67;100019.22;6176637;22;20028;-78
2021/12/18 07:59:03;;;;;;;5.07;3.17;;;;;;;-1.01;73.48;100009.00;6174902;22;20038;-79
2021/12/18 08:01:30;;;;;;;3.10;2.90;;;;;;;-0.94;73.85;100005.50;6219531;22;20020;-78
2021/12/18 08:03:59;;;;;;;2.47;2.10;;;;;;;-0.88;70.11;100015.75;6222723;22;20023;-78
2021/12/18 08:06:27;;;;;;;2.45;2.25;;;;;;;-0.96;69.87;99991.88;6197496;22;20023;-78
2021/12/18 08:08:54;;;;;;;2.60;2.40;;;;;;;-0.93;70.31;99989.28;6197077;22;20012;-80
2021/12/18 08:11:22;;;;;;;9.57;8.77;;;;;;;-0.82;70.74;100008.84;6147075;22;20026;-79
2021/12/18 08:13:55;;;;;;;2.97;2.78;;;;;;;-0.94;70.37;99985.03;6173676;22;20115;-79
2021/12/18 08:16:33;;;;;;;2.78;2.58;;;;;;;-0.85;70.01;99973.00;6195105;22;20016;-79
2021/12/18 08:19:02;;;;;;;3.15;2.95;;;;;;;-0.69;69.52;99979.72;6196383;22;20113;-79
2021/12/18 08:21:35;;;;;;;2.88;2.63;;;;;;;-0.51;70.07;99996.69;6192490;22;20023;-78
2021/12/18 08:24:01;;;;;;;5.95;2.95;;;;;;;-0.62;69.48;99963.44;6193872;22;20468;-79
2021/12/18 08:26:27;;;;;;;3.50;3.20;;;;;;;-0.50;69.32;99993.25;6244736;22;20018;-78
2021/12/18 08:28:53;;;;;;;5.47;3.42;;;;;;;-0.59;69.97;99967.72;6196633;22;20012;-77
2021/12/18 08:31:19;;;;;;;4.15;3.78;;;;;;;-0.63;69.55;99966.03;6247650;22;20333;-79
2021/12/18 08:33:45;;;;;;;3.80;3.45;;;;;;;-0.47;69.28;99977.84;6220050;22;20019;-80
2021/12/18 08:36:11;;;;;;;3.22;3.03;;;;;;;-0.49;69.40;99964.16;6192831;22;20020;-78
2021/12/18 08:38:37;;;;;;;5.22;3.05;;;;;;;-0.35;69.10;99967.47;6242152;22;20023;-79
2021/12/18 08:41:03;;;;;;;3.53;2.67;;;;;;;-0.54;69.50;99945.44;6244742;22;20026;-78
2021/12/18 08:43:30;;;;;;;2.53;2.33;;;;;;;-0.56;69.58;99944.59;6219509;22;20020;-78
2021/12/18 08:45:56;;;;;;;3.25;2.92;;;;;;;-0.62;69.05;99924.13;6219252;22;20023;-79
2021/12/18 08:48:22;;;;;;;2.80;2.60;;;;;;;-0.82;68.89;99902.97;6220465;22;20041;-79
2021/12/18 08:50:48;;;;;;;2.80;2.60;;;;;;;-0.71;68.69;99929.34;6146000;22;20026;-79
2021/12/18 08:53:14;;;;;;;3.33;3.03;;;;;;;-0.48;68.92;99947.09;6244230;22;20028;-78
2021/12/18 08:58:38;;;;;;;10.35;3.50;;;;;;;-0.51;69.20;99930.03;6202429;22;20304;-77
2021/12/18 09:01:11;;;;;;;3.40;3.10;;;;;;;-0.58;69.10;99910.44;6241086;22;20164;-78
2021/12/18 09:03:38;;;;;;;2.67;2.47;;;;;;;-0.44;68.65;99920.56;6146774;22;20379;-81
2021/12/18 09:06:05;;;;;;;3.30;3.00;;;;;;;-0.53;68.94;99908.69;6141661;22;20439;-79
2021/12/18 09:08:31;;;;;;;4.00;3.65;;;;;;;-0.62;69.71;99906.19;6167441;22;20020;-79
2021/12/18 09:10:56;;;;;;;2.75;2.50;;;;;;;-0.80;70.48;99880.72;6194031;22;20020;-78
2021/12/18 09:13:23;;;;;;;2.95;2.75;;;;;;;-0.82;71.09;99877.34;6195590;22;20027;-79
2021/12/18 09:15:49;;;;;;;3.63;3.33;;;;;;;-0.96;71.78;99863.78;6194133;22;20023;-79
2021/12/18 09:18:15;;;;;;;3.20;2.90;;;;;;;-0.75;72.12;99889.22;6194558;22;20024;-80
2021/12/18 09:20:44;;;;;;;2.90;2.70;;;;;;;-0.90;72.10;99877.41;6198578;22;20027;-81
2021/12/18 09:23:13;;;;;;;3.65;2.55;;;;;;;-0.93;72.56;99874.00;6199993;22;20027;-80
2021/12/18 09:25:39;;;;;;;2.83;2.63;;;;;;;-0.94;73.25;99887.69;6198358;22;20400;-80
2021/12/18 09:28:05;;;;;;;2.95;2.75;;;;;;;-0.83;73.78;99901.25;6197902;22;20465;-80
2021/12/18 09:30:32;;;;;;;2.33;2.17;;;;;;;-0.95;73.67;99873.19;6273440;22;20020;-80
2021/12/18 09:33:00;;;;;;;2.20;2.10;;;;;;;-0.79;73.59;99897.81;6171796;22;20424;-82
2021/12/18 09:35:27;;;;;;;6.20;2.50;;;;;;;-0.90;73.86;99885.09;6245307;22;20024;-81
2021/12/18 09:37:56;;;;;;;2.65;2.33;;;;;;;-0.90;73.72;99876.56;6198501;22;20030;-81
2021/12/18 09:40:31;;;;;;;3.45;3.17;;;;;;;-0.86;74.42;99880.78;6225583;22;20102;-81
2021/12/18 09:42:57;;;;;;;4.15;2.95;;;;;;;-0.78;74.48;99891.81;6148916;22;20015;-80
2021/12/18 09:45:24;;;;;;;2.67;2.47;;;;;;;-0.91;74.26;99872.28;6223853;22;20016;-81
2021/12/18 09:47:50;;;;;;;2.97;2.78;;;;;;;-1.03;74.58;99836.53;6250810;22;20026;-78
2021/12/18 09:50:17;;;;;;;3.15;2.90;;;;;;;-1.01;74.79;99845.06;6196269;22;20023;-80
2021/12/18 09:52:43;;;;;;;6.22;3.70;;;;;;;-0.97;74.78;99852.69;6172387;22;20023;-80
2021/12/18 09:55:10;;;;;;;4.20;3.72;;;;;;;-0.96;75.89;99863.78;6245509;22;20027;-81
2021/12/18 09:57:37;;;;;;;3.33;3.03;;;;;;;-1.09;75.58;99848.53;6197718;22;20025;-80
2021/12/18 10:00:15;;;;;;;2.90;2.70;;;;;;;-1.09;77.36;99863.91;6221892;22;20019;-80
2021/12/18 10:02:47;;;;;;;2.33;1.95;;;;;;;-1.32;77.23;99819.69;6201925;22;20036;-80
2021/12/18 10:05:34;;;;;;;2.45;2.30;;;;;;;-1.27;76.63;99833.31;6171170;22;20027;-80
2021/12/18 10:08:11;;;;;;;2.72;2.53;;;;;;;-1.31;77.15;99820.56;6201270;22;20111;-79
2021/12/18 10:11:02;;;;;;;5.68;2.20;;;;;;;-1.29;77.60;99827.34;6174706;22;20020;-80
2021/12/18 10:13:29;;;;;;;2.53;2.33;;;;;;;-1.28;78.50;99844.44;6202936;22;20019;-80
2021/12/18 10:16:07;;;;;;;2.83;2.60;;;;;;;-1.23;79.04;99846.94;6173220;22;20019;-80
2021/12/18 10:18:33;;;;;;;2.42;2.25;;;;;;;-1.14;79.44;99855.41;6197963;22;20019;-80
2021/12/18 10:21:14;;;;;;;2.42;2.20;;;;;;;-1.11;78.65;99860.50;6223174;22;20015;-80
2021/12/18 10:23:41;;;;;;;2.95;2.55;;;;;;;-1.24;78.86;99838.41;6149023;22;20042;-79
2021/12/18 10:26:28;;;;;;;2.45;2.25;;;;;;;-1.37;79.31;99826.53;6221624;22;20046;-80
2021/12/18 10:28:55;;;;;;;2.05;1.95;;;;;;;-1.26;79.67;99841.84;6173524;22;20027;-80
2021/12/18 10:31:43;;;;;;;2.38;2.17;;;;;;;-1.17;79.20;99857.13;6209477;22;20022;-80
2021/12/18 10:34:17;;;;;;;6.90;2.45;;;;;;;-1.31;79.01;99829.06;6203001;22;20023;-81
2021/12/18 10:37:13;;;;;;;2.47;2.38;;;;;;;-1.16;79.14;99861.41;6247814;22;20024;-80
2021/12/18 10:39:50;;;;;;;4.93;2.50;;;;;;;-1.18;78.79;99853.72;6167936;23;20077;-80
2021/12/18 10:42:46;;;;;;;3.22;3.03;;;;;;;-1.19;79.04;99839.22;6166970;23;20086;-80
2021/12/18 10:45:20;;;;;;;2.85;2.65;;;;;;;-1.22;79.01;99831.56;6144863;23;20054;-80
2021/12/18 10:48:06;;;;;;;4.82;3.15;;;;;;;-1.14;79.43;99845.16;6118684;23;20024;-79
2021/12/18 10:50:40;;;;;;;4.05;3.65;;;;;;;-1.14;79.85;99845.16;6210501;23;20020;-80
2021/12/18 10:53:19;;;;;;;2.55;2.35;;;;;;;-1.29;79.27;99819.69;6141817;23;20321;-80
2021/12/18 10:55:54;;;;;;;2.13;2.03;;;;;;;-1.20;79.75;99842.63;6146815;23;20139;-80
2021/12/18 10:58:25;;;;;;;2.90;2.60;;;;;;;-1.38;80.18;99824.88;6165002;23;20119;-80
2021/12/18 11:01:01;;;;;;;5.03;2.97;;;;;;;-1.45;79.83;99807.84;6164419;23;20024;-80
2021/12/18 11:03:51;;;;;;;2.17;2.08;;;;;;;-1.41;78.56;99822.34;6142939;23;20472;-79
2021/12/18 11:06:20;;;;;;;2.30;2.10;;;;;;;-1.41;79.45;99827.47;6188718;23;20027;-81
2021/12/18 11:09:09;;;;;;;4.43;2.63;;;;;;;-1.29;79.40;99835.03;6192728;23;20028;-82
2021/12/18 11:14:15;;;;;;;2.60;2.40;;;;;;;-1.36;79.17;99823.13;6189978;23;20121;-82
2021/12/18 11:16:43;;;;;;;;;;;;;;;-1.31;78.07;99835.91;6140309;23;20030;-82
2021/12/18 11:19:13;;;;;;;2.15;2.03;;;;;;;-1.44;77.26;99806.97;6242015;23;19916;-82
2021/12/18 11:25:23;;;;;;;2.72;2.53;;;;;;;-1.34;77.64;99833.38;6221036;23;20090;-82
2021/12/18 11:27:53;;;;;;;2.50;2.30;;;;;;;-1.41;76.95;99824.03;6188829;23;20027;-81
2021/12/18 11:30:52;;;;;;;2.92;2.05;;;;;;;-1.47;76.36;99809.56;6199475;23;20024;-82
2021/12/18 11:33:22;;;;;;;2.13;1.85;;;;;;;-1.47;76.30;99801.88;6212824;23;20024;-82
2021/12/18 11:36:13;;;;;;;1.90;1.80;;;;;;;-1.43;76.24;99818.06;6179981;23;20016;-81
2021/12/18 11:38:42;;;;;;;2.75;1.90;;;;;;;-1.44;75.16;99814.66;6155973;22;20023;-82
2021/12/18 11:41:15;;;;;;;2.45;2.25;;;;;;;-1.59;74.83;99787.47;6273971;22;20024;-84
2021/12/18 11:43:46;;;;;;;2.30;2.20;;;;;;;-1.52;74.60;99806.19;6220909;22;20029;-82
2021/12/18 11:46:30;;;;;;;2.97;2.58;;;;;;;-1.54;73.95;99794.28;6229396;22;20085;-82
2021/12/18 11:49:05;;;;;;;2.05;1.95;;;;;;;-1.40;72.16;99810.38;6169252;22;20024;-83
2021/12/18 11:51:32;;;;;;;1.88;1.80;;;;;;;-1.64;71.73;99776.41;6247980;22;20119;-81
2021/12/18 11:54:03;;;;;;;1.88;1.77;;;;;;;-1.59;71.07;99776.38;6147608;22;20474;-82
2021/12/18 11:56:48;;;;;;;16.63;1.93;;;;;;;-1.48;70.86;99797.66;6195815;22;20023;-82
2021/12/18 11:59:14;;;;;;;3.17;2.88;;;;;;;-1.47;71.62;99803.63;6221735;22;20073;-83
2021/12/18 12:01:48;;;;;;;2.20;2.10;;;;;;;-1.54;71.31;99790.00;6147646;22;20528;-80
2021/12/18 12:04:16;;;;;;;2.08;1.98;;;;;;;-1.58;71.23;99784.06;6198186;22;20719;-81
2021/12/18 12:06:43;;;;;;;1.85;1.75;;;;;;;-1.60;71.47;99777.22;6170209;22;20130;-79
2021/12/18 12:09:35;;;;;;;2.00;1.90;;;;;;;-1.47;71.55;99804.44;6271334;22;20015;-79
2021/12/18 12:12:49;;;;;;;3.72;2.08;;;;;;;-1.50;72.17;99804.47;6223388;22;20101;-77
2021/12/18 12:15:15;;;;;;;1.77;1.67;;;;;;;-1.53;71.84;99794.25;6246461;22;20022;-80
2021/12/18 12:17:59;;;;;;;1.60;1.50;;;;;;;-1.45;71.57;99796.75;6219340;22;20147;-80
2021/12/18 12:20:36;;;;;;;3.28;2.00;;;;;;;-1.47;70.85;99781.41;6218688;22;20027;-82
2021/12/18 12:23:03;;;;;;;2.15;2.05;;;;;;;-1.61;71.29;99757.66;6198113;22;20484;-81
2021/12/18 12:26:01;;;;;;;3.00;2.17;;;;;;;-1.48;71.82;99777.16;6195888;22;20015;-81
2021/12/18 12:28:27;;;;;;;4.40;2.30;;;;;;;-1.65;72.13;99758.53;6114933;22;20024;-82
2021/12/18 12:30:59;;;;;;;2.17;2.05;;;;;;;-1.53;72.38;99778.91;6243859;22;20051;-80
2021/12/18 12:33:27;;;;;;;1.77;1.63;;;;;;;-1.51;72.28;99772.06;6191325;22;20031;-81
2021/12/18 12:35:54;;;;;;;2.85;2.38;;;;;;;-1.55;72.53;99760.16;6245777;22;20150;-80
2021/12/18 12:38:30;;;;;;;6.22;3.30;;;;;;;-1.66;72.63;99738.91;6190827;22;20038;-80
2021/12/18 12:40:57;;;;;;;3.53;3.17;;;;;;;-1.56;72.86;99758.44;6197650;22;20011;-80